createdAt,value
2017-06-22T01:04:49.555Z,12.10
2017-06-22T05:20:50.551Z,18.10
2017-06-22T05:23:18.034Z,18.90
2017-06-22T05:25:45.738Z,20.10
2017-06-22T05:28:13.943Z,21.60
2017-06-22T05:30:41.478Z,23.60
2017-06-22T05:33:09.043Z,25.20
2017-06-22T05:35:36.756Z,25.30
2017-06-22T05:38:04.272Z,25.20
2017-06-22T05:40:31.809Z,25.70
2017-06-22T05:42:59.721Z,26.20
2017-06-22T05:45:27.219Z,26.90
2017-06-22T05:47:55.740Z,27.40
2017-06-22T05:50:23.500Z,26.80
2017-06-22T05:52:51.438Z,26.90
2017-06-22T05:55:18.951Z,27.10
2017-06-22T05:57:46.821Z,27.60
2017-06-22T06:00:14.332Z,27.90
2017-06-22T06:02:42.216Z,28.20
2017-06-22T06:05:10.072Z,28.60
2017-06-22T06:07:37.819Z,28.00
2017-06-22T06:10:05.433Z,28.40
2017-06-22T06:12:33.368Z,28.20
2017-06-22T06:15:00.860Z,28.30
2017-06-22T06:17:28.428Z,28.50
2017-06-22T06:19:56.963Z,28.60
2017-06-22T06:22:24.728Z,28.60
2017-06-22T06:24:52.276Z,29.30
2017-06-22T06:27:19.846Z,29.10
2017-06-22T06:29:47.599Z,28.80
2017-06-22T06:32:15.128Z,28.60
2017-06-22T06:34:42.925Z,30.00
2017-06-22T06:37:10.488Z,31.20
2017-06-22T06:39:38.547Z,31.50
2017-06-22T06:42:06.030Z,31.40
2017-06-22T06:44:33.538Z,30.60
2017-06-22T06:47:01.319Z,32.40
2017-06-22T06:49:28.854Z,34.20
2017-06-22T06:51:56.374Z,34.20
2017-06-22T06:54:24.426Z,33.10
2017-06-22T06:56:52.023Z,32.60
2017-06-22T06:59:19.521Z,32.20
2017-06-22T07:01:47.032Z,31.30
2017-06-22T07:04:15.337Z,33.10
2017-06-22T07:06:42.887Z,33.00
2017-06-22T07:09:10.371Z,32.90
2017-06-22T07:11:37.880Z,32.80
2017-06-22T07:14:05.420Z,33.10
2017-06-22T07:16:33.950Z,33.80
2017-06-22T07:19:01.476Z,33.50
2017-06-22T07:21:29.448Z,33.90
2017-06-22T07:23:57.224Z,33.90
2017-06-22T07:26:24.842Z,33.60
2017-06-22T07:28:53.087Z,33.90
2017-06-22T07:31:21.395Z,33.80
2017-06-22T07:33:49.644Z,34.00
2017-06-22T07:36:17.671Z,34.00
2017-06-22T07:38:45.582Z,34.40
2017-06-22T07:41:13.101Z,34.40
2017-06-22T07:43:40.619Z,33.60
2017-06-22T07:46:09.553Z,33.80
2017-06-22T07:48:37.055Z,33.70
2017-06-22T07:51:04.571Z,34.80
2017-06-22T07:53:32.148Z,34.60
2017-06-22T07:55:59.880Z,34.60
2017-06-22T07:58:27.651Z,34.40
2017-06-22T08:00:55.216Z,34.80
2017-06-22T08:03:22.935Z,34.80
2017-06-22T08:05:50.731Z,34.60
2017-06-22T08:08:18.220Z,34.60
2017-06-22T08:10:46.063Z,33.60
2017-06-22T08:13:16.226Z,33.60
2017-06-22T08:15:45.392Z,33.60
2017-06-22T08:18:13.118Z,34.00
2017-06-22T08:20:40.679Z,34.20
2017-06-22T08:23:09.296Z,33.90
2017-06-22T08:25:36.853Z,32.60
2017-06-22T08:28:04.399Z,32.70
2017-06-22T08:30:31.908Z,33.70
2017-06-22T08:32:59.799Z,34.30
2017-06-22T08:35:27.288Z,34.40
2017-06-22T08:37:54.968Z,34.20
2017-06-22T08:40:23.250Z,33.40
2017-06-22T08:42:51.625Z,33.50
2017-06-22T08:45:19.103Z,33.50
2017-06-22T08:47:46.639Z,33.80
2017-06-22T08:50:14.906Z,34.10
2017-06-22T08:52:43.167Z,34.20
2017-06-22T08:55:10.672Z,34.10
2017-06-22T08:57:38.222Z,33.90
2017-06-22T09:00:05.868Z,33.90
2017-06-22T09:02:36.256Z,33.30
2017-06-22T09:05:03.778Z,33.70
2017-06-22T09:07:31.424Z,34.20
2017-06-22T09:09:59.241Z,34.30
2017-06-22T09:12:26.758Z,34.60
2017-06-22T09:14:54.450Z,33.60
2017-06-22T09:17:22.013Z,33.30
2017-06-22T09:19:49.948Z,33.30
2017-06-22T09:22:18.200Z,33.50
2017-06-22T09:24:46.150Z,34.10
2017-06-22T09:27:14.051Z,34.20
2017-06-22T09:29:41.809Z,33.30
2017-06-22T09:32:09.649Z,32.30
2017-06-22T09:34:37.650Z,31.80
2017-06-22T09:37:05.257Z,31.50
2017-06-22T09:39:33.535Z,31.20
2017-06-22T09:42:02.353Z,30.90
2017-06-22T09:44:30.347Z,30.90
2017-06-22T09:46:57.900Z,30.80
2017-06-22T09:49:25.910Z,30.80
2017-06-22T09:51:54.017Z,30.90
2017-06-22T09:54:21.620Z,30.80
2017-06-22T09:56:49.208Z,30.80
2017-06-22T09:59:16.824Z,30.80
2017-06-22T10:01:44.444Z,30.70
2017-06-22T10:04:12.035Z,30.70
2017-06-22T10:06:39.608Z,30.90
2017-06-22T10:09:07.160Z,30.70
2017-06-22T10:11:34.660Z,30.60
2017-06-22T10:14:02.508Z,30.50
2017-06-22T10:16:31.222Z,30.80
2017-06-22T10:18:58.832Z,30.80
2017-06-22T10:21:27.455Z,31.00
2017-06-22T10:23:54.974Z,31.10
2017-06-22T10:26:22.696Z,31.10
2017-06-22T10:28:50.218Z,31.00
2017-06-22T10:31:17.738Z,31.20
2017-06-22T10:33:45.230Z,31.30
2017-06-22T10:36:12.767Z,31.30
2017-06-22T10:38:41.288Z,31.00
2017-06-22T10:41:10.366Z,31.00
2017-06-22T10:43:39.251Z,31.00
2017-06-22T10:46:07.358Z,30.80
2017-06-22T10:48:35.343Z,30.70
2017-06-22T10:51:03.827Z,30.80
2017-06-22T10:53:31.419Z,30.90
2017-06-22T10:55:59.708Z,31.00
2017-06-22T10:58:27.343Z,30.90
2017-06-22T11:00:56.138Z,30.80
2017-06-22T11:03:23.942Z,30.80
2017-06-22T11:05:51.491Z,30.90
2017-06-22T11:08:19.275Z,31.00
2017-06-22T11:10:46.869Z,30.80
2017-06-22T11:13:14.432Z,30.50
2017-06-22T11:15:42.736Z,30.80
2017-06-22T11:18:10.268Z,30.80
2017-06-22T11:20:38.881Z,30.60
2017-06-22T11:23:07.304Z,30.60
2017-06-22T11:25:34.989Z,30.70
2017-06-22T11:28:02.551Z,30.90
2017-06-22T11:30:30.323Z,31.00
2017-06-22T11:32:58.863Z,31.10
2017-06-22T11:35:26.403Z,31.10
2017-06-22T11:37:53.921Z,31.00
2017-06-22T11:40:21.423Z,31.00
2017-06-22T11:42:49.020Z,30.80
2017-06-22T11:45:16.603Z,30.70
2017-06-22T11:47:44.386Z,30.90
2017-06-22T11:50:12.036Z,31.20
2017-06-22T11:52:40.025Z,31.30
2017-06-22T11:55:07.535Z,31.50
2017-06-22T11:57:35.074Z,31.50
2017-06-22T12:00:03.734Z,31.60
2017-06-22T12:02:31.779Z,31.60
2017-06-22T12:04:59.284Z,31.50
2017-06-22T12:07:26.775Z,31.20
2017-06-22T12:09:54.344Z,31.10
2017-06-22T12:12:21.876Z,31.30
2017-06-22T12:14:49.483Z,31.20
2017-06-22T12:17:17.124Z,31.40
2017-06-22T12:19:44.607Z,31.30
2017-06-22T12:22:12.283Z,31.50
2017-06-22T12:24:41.057Z,31.60
2017-06-22T12:27:08.840Z,31.60
2017-06-22T12:29:37.300Z,31.90
2017-06-22T12:32:05.055Z,31.90
2017-06-22T12:34:32.535Z,32.00
2017-06-22T12:37:00.272Z,32.00
2017-06-22T12:39:27.927Z,32.10
2017-06-22T12:44:30.026Z,32.40
2017-06-22T12:46:57.794Z,32.40
2017-06-22T12:49:25.343Z,32.50
2017-06-22T12:51:53.615Z,32.20
2017-06-22T12:54:21.389Z,32.20
2017-06-22T12:56:49.105Z,32.50
2017-06-22T12:59:17.071Z,32.50
2017-06-22T13:01:44.657Z,32.30
2017-06-22T13:04:12.379Z,32.40
2017-06-22T13:06:40.491Z,32.40
2017-06-22T13:09:08.055Z,32.50
2017-06-22T13:11:36.452Z,32.40
2017-06-22T13:14:04.422Z,32.40
2017-06-22T13:16:32.147Z,32.50
2017-06-22T13:18:59.631Z,32.70
2017-06-22T13:21:27.323Z,32.80
2017-06-22T13:23:55.246Z,32.60
2017-06-22T13:26:22.806Z,32.60
2017-06-22T13:28:50.332Z,32.70
2017-06-22T13:31:18.052Z,32.90
2017-06-22T13:33:45.859Z,32.90
2017-06-22T13:36:13.368Z,32.90
2017-06-22T13:38:40.945Z,32.80
2017-06-22T13:41:08.572Z,33.00
2017-06-22T13:43:36.060Z,33.30
2017-06-22T13:46:03.696Z,33.70
2017-06-22T13:48:31.895Z,33.80
2017-06-22T13:50:59.452Z,33.40
2017-06-22T13:53:27.152Z,33.20
2017-06-22T13:55:54.683Z,33.30
2017-06-22T13:58:22.259Z,33.40
2017-06-22T14:00:49.836Z,33.30
2017-06-22T14:03:17.322Z,33.20
2017-06-22T14:05:45.698Z,33.30
2017-06-22T14:08:13.621Z,33.10
2017-06-22T14:10:46.363Z,32.90
2017-06-22T14:13:14.784Z,32.90
2017-06-22T14:15:44.074Z,32.90
2017-06-22T14:18:11.771Z,33.00
2017-06-22T14:20:39.572Z,33.00
2017-06-22T14:23:07.154Z,33.10
2017-06-22T14:25:34.842Z,33.10
2017-06-22T14:28:02.644Z,33.10
2017-06-22T14:30:31.420Z,32.90
2017-06-22T14:32:59.243Z,32.90
2017-06-22T14:35:27.771Z,33.40
2017-06-22T14:37:55.858Z,33.40
2017-06-22T14:40:23.372Z,33.30
2017-06-22T14:42:51.503Z,33.30
2017-06-22T14:45:19.140Z,33.40
2017-06-22T14:47:46.725Z,33.70
2017-06-22T14:50:14.372Z,33.60
2017-06-22T14:52:42.374Z,33.20
2017-06-22T14:55:09.930Z,33.00
2017-06-22T14:57:38.343Z,32.50
2017-06-22T15:00:06.091Z,32.50
2017-06-22T15:02:33.776Z,32.40
2017-06-22T15:05:01.287Z,32.20
2017-06-22T15:07:29.032Z,32.50
2017-06-22T15:09:56.540Z,32.50
2017-06-22T15:12:24.371Z,32.50
2017-06-22T15:14:52.160Z,32.40
2017-06-22T15:17:20.543Z,32.60
2017-06-22T15:19:48.368Z,32.90
2017-06-22T15:22:16.624Z,33.30
2017-06-22T15:24:44.547Z,33.30
2017-06-22T15:27:12.044Z,33.20
2017-06-22T15:29:39.715Z,33.10
2017-06-22T15:32:07.284Z,32.70
2017-06-22T15:34:35.768Z,32.10
2017-06-22T15:37:03.351Z,32.10
2017-06-22T15:39:31.900Z,32.00
2017-06-22T15:41:59.432Z,31.90
2017-06-22T15:44:27.104Z,31.70
2017-06-22T15:46:55.416Z,31.70
2017-06-22T15:49:23.229Z,31.70
2017-06-22T15:51:50.716Z,31.70
2017-06-22T15:54:18.658Z,31.50
2017-06-22T15:56:47.200Z,31.40
2017-06-22T15:59:15.371Z,31.30
2017-06-22T16:01:42.872Z,31.40
2017-06-22T16:04:10.424Z,31.40
2017-06-22T16:06:42.672Z,30.60
2017-06-22T16:09:10.192Z,30.60
2017-06-22T16:11:37.798Z,29.50
2017-06-22T16:14:05.525Z,28.80
2017-06-22T16:16:33.994Z,28.20
2017-06-22T16:19:02.080Z,27.10
2017-06-22T16:21:29.835Z,26.70
2017-06-22T16:23:57.326Z,26.30
2017-06-22T16:26:25.117Z,26.00
2017-06-22T16:28:53.371Z,25.80
2017-06-22T16:31:21.132Z,25.80
2017-06-22T16:33:48.771Z,25.60
2017-06-22T16:36:16.303Z,25.50
2017-06-22T16:38:44.992Z,25.30
2017-06-22T16:41:12.587Z,25.10
2017-06-22T16:43:40.417Z,24.90
2017-06-22T16:46:09.075Z,24.80
2017-06-22T16:48:36.967Z,24.60
2017-06-22T16:51:04.721Z,24.40
2017-06-22T16:53:32.396Z,24.40
2017-06-22T16:56:02.493Z,24.30
2017-06-22T16:58:31.428Z,24.30
2017-06-22T17:00:59.257Z,24.10
2017-06-22T17:03:26.882Z,23.90
2017-06-22T17:05:55.914Z,23.90
2017-06-22T17:08:24.243Z,23.80
2017-06-22T17:10:52.416Z,23.90
2017-06-22T17:13:20.707Z,24.00
2017-06-22T17:15:48.335Z,23.30
2017-06-22T17:18:16.151Z,22.60
2017-06-22T17:20:43.882Z,22.40
2017-06-22T17:23:12.332Z,22.50
2017-06-22T17:25:40.892Z,22.40
2017-06-22T17:28:08.582Z,22.40
2017-06-22T17:30:36.307Z,22.20
2017-06-22T17:33:04.239Z,22.10
2017-06-22T17:35:31.772Z,22.00
2017-06-22T17:37:59.297Z,21.70
2017-06-22T17:40:26.958Z,21.30
2017-06-22T17:42:54.495Z,20.60
2017-06-22T17:45:22.048Z,20.00
2017-06-22T17:50:18.755Z,18.90
2017-06-22T18:37:30.324Z,18.00
2017-06-22T18:39:57.838Z,17.90
2017-06-22T18:44:54.351Z,17.60
2017-06-22T18:47:21.885Z,17.50
2017-06-22T18:49:49.419Z,17.50
2017-06-22T18:52:17.821Z,17.50
2017-06-22T18:54:46.407Z,17.50
2017-06-22T18:57:13.903Z,17.60
2017-06-22T18:59:42.407Z,17.60
2017-06-22T19:02:10.907Z,17.50
2017-06-22T19:04:38.436Z,17.50
2017-06-22T19:07:05.939Z,17.60
2017-06-22T19:09:33.591Z,17.50
2017-06-22T19:16:59.218Z,17.60
2017-06-22T19:19:27.991Z,17.60
2017-06-22T19:21:56.079Z,17.60
2017-06-22T19:24:24.260Z,17.60
2017-06-22T19:26:51.876Z,17.50
2017-06-22T19:29:20.253Z,17.50
2017-06-22T19:31:49.237Z,17.40
2017-06-22T19:34:16.735Z,17.50
2017-06-22T19:36:44.315Z,17.40
2017-06-22T19:39:11.803Z,17.40
2017-06-22T19:41:39.332Z,17.40
2017-06-22T19:44:06.892Z,17.30
2017-06-22T19:46:34.424Z,17.30
2017-06-22T19:49:01.916Z,17.40
2017-06-22T19:51:29.476Z,17.40
2017-06-22T19:53:57.029Z,17.50
2017-06-22T19:56:24.950Z,17.50
2017-06-22T19:58:53.766Z,17.40
2017-06-22T20:01:21.514Z,17.40
2017-06-22T20:03:49.056Z,17.50
2017-06-22T20:06:16.580Z,17.50
2017-06-22T20:08:44.360Z,17.50
2017-06-22T20:11:12.128Z,17.40
2017-06-22T20:13:40.795Z,17.40
2017-06-22T20:16:09.053Z,17.40
2017-06-22T20:18:36.567Z,17.30
2017-06-22T20:21:04.343Z,17.40
2017-06-22T20:23:32.209Z,17.40
2017-06-22T20:26:00.593Z,17.60
2017-06-22T20:28:28.213Z,17.60
2017-06-22T20:30:55.700Z,17.70
2017-06-22T20:33:23.271Z,17.60
2017-06-22T20:35:50.819Z,17.70
2017-06-22T20:38:18.332Z,17.70
2017-06-22T20:40:45.871Z,17.70
2017-06-22T20:43:14.123Z,17.70
2017-06-22T20:45:41.628Z,17.70
2017-06-22T20:48:09.151Z,17.70
2017-06-22T20:50:36.977Z,17.70
2017-06-22T20:53:04.524Z,17.60
2017-06-22T20:55:32.096Z,17.60
2017-06-22T20:57:59.587Z,17.60
2017-06-22T21:00:27.156Z,17.60
2017-06-22T21:02:55.422Z,17.60
2017-06-22T21:05:23.678Z,17.60
2017-06-22T21:07:51.514Z,17.60
2017-06-22T21:10:19.065Z,17.60
2017-06-22T21:12:46.679Z,17.60
2017-06-22T21:15:14.940Z,17.40
2017-06-22T21:17:42.710Z,17.40
2017-06-22T21:20:11.047Z,17.50
2017-06-22T21:22:39.356Z,17.50
2017-06-22T21:25:06.867Z,17.60
2017-06-22T21:27:34.410Z,17.60
2017-06-22T21:30:02.198Z,17.60
2017-06-22T21:32:29.956Z,17.70
2017-06-22T21:34:57.505Z,17.60
2017-06-22T21:37:25.411Z,17.50
2017-06-22T21:39:53.211Z,17.40
2017-06-22T21:42:20.699Z,17.50
2017-06-22T21:44:48.564Z,17.40
2017-06-22T21:50:08.285Z,16.50
2017-06-22T21:52:36.116Z,16.50
2017-06-22T21:55:03.618Z,16.50
2017-06-22T21:57:32.154Z,16.40
2017-06-22T21:59:59.917Z,16.40
2017-06-22T22:02:27.449Z,16.50
2017-06-22T22:04:55.094Z,16.50
2017-06-22T22:07:23.559Z,16.60
2017-06-22T22:12:20.977Z,16.50
2017-06-22T22:14:48.849Z,16.70
2017-06-22T23:04:27.741Z,17.00
2017-06-22T23:06:55.457Z,17.10
2017-06-22T23:09:23.141Z,17.20
2017-06-22T23:11:50.837Z,17.10
2017-06-22T23:14:18.473Z,17.20
2017-06-22T23:16:45.968Z,17.20
2017-06-22T23:19:13.498Z,17.10
2017-06-22T23:21:41.042Z,17.10
2017-06-22T23:24:08.593Z,17.00
2017-06-22T23:26:36.286Z,17.00
2017-06-22T23:29:03.809Z,17.00
2017-06-22T23:31:31.304Z,17.00
2017-06-22T23:33:58.821Z,17.00
2017-06-22T23:36:26.701Z,17.00
2017-06-22T23:38:54.225Z,17.00
2017-06-22T23:41:21.938Z,17.00
2017-06-22T23:43:49.506Z,17.00
2017-06-22T23:51:16.650Z,17.10
2017-06-22T23:53:44.236Z,17.10
2017-06-22T23:56:11.766Z,17.30
2017-06-22T23:58:39.360Z,17.20
